createdAt,value
2018-03-29T00:02:06.138Z,95966.95
2018-03-29T00:04:32.413Z,95964.95
2018-03-29T00:06:58.758Z,95970.33
2018-03-29T00:09:25.020Z,95981.75
2018-03-29T00:11:51.266Z,95986.67
2018-03-29T00:14:17.516Z,95977.89
2018-03-29T00:16:43.803Z,95991.30
2018-03-29T00:19:10.056Z,95994.31
2018-03-29T00:21:36.337Z,95999.84
2018-03-29T00:24:02.626Z,96001.39
2018-03-29T00:26:28.905Z,96007.30
2018-03-29T00:28:55.161Z,95999.53
2018-03-29T00:31:21.417Z,96017.22
2018-03-29T00:33:47.702Z,96004.80
2018-03-29T00:36:13.954Z,96013.20
2018-03-29T00:38:40.202Z,96015.47
2018-03-29T00:41:06.500Z,96024.13
2018-03-29T00:43:32.744Z,96033.27
2018-03-29T00:45:59.180Z,96027.50
2018-03-29T00:48:25.482Z,96025.23
2018-03-29T00:50:51.758Z,96020.95
2018-03-29T00:53:30.232Z,96022.48
2018-03-29T00:55:56.493Z,96025.11
2018-03-29T00:58:22.757Z,96026.98
2018-03-29T01:00:49.066Z,96023.63
2018-03-29T01:03:15.370Z,96026.36
2018-03-29T01:05:41.644Z,96040.80
2018-03-29T01:08:07.934Z,96044.06
2018-03-29T01:10:34.192Z,96054.23
2018-03-29T01:13:00.467Z,96042.20
2018-03-29T01:15:26.726Z,96044.58
2018-03-29T01:17:53.009Z,96051.77
2018-03-29T01:20:19.319Z,96059.79
2018-03-29T01:22:45.574Z,96069.46
2018-03-29T01:25:11.844Z,96069.97
2018-03-29T01:27:38.149Z,96077.24
2018-03-29T01:30:04.448Z,96079.38
2018-03-29T01:32:38.614Z,96086.91
2018-03-29T01:35:04.929Z,96117.28
2018-03-29T01:37:31.222Z,96110.75
2018-03-29T01:39:57.528Z,96114.75
2018-03-29T01:42:23.808Z,96127.64
2018-03-29T01:44:50.066Z,96138.66
2018-03-29T01:47:16.347Z,96152.77
2018-03-29T01:49:42.604Z,96140.46
2018-03-29T01:52:08.834Z,96134.30
2018-03-29T01:54:35.137Z,96143.86
2018-03-29T01:57:01.388Z,96153.00
2018-03-29T01:59:27.652Z,96144.52
2018-03-29T02:01:53.963Z,96153.53
2018-03-29T02:04:20.241Z,96148.53
2018-03-29T02:06:46.485Z,96146.75
2018-03-29T02:09:12.796Z,96166.51
2018-03-29T02:11:39.087Z,96165.31
2018-03-29T02:14:05.327Z,96179.45
2018-03-29T02:16:31.623Z,96187.09
2018-03-29T02:18:57.897Z,96189.84
2018-03-29T02:21:24.132Z,96212.79
2018-03-29T02:23:50.414Z,96207.14
2018-03-29T02:26:16.689Z,96207.88
2018-03-29T02:28:42.975Z,96211.36
2018-03-29T02:31:09.213Z,96211.19
2018-03-29T02:33:35.462Z,96206.70
2018-03-29T02:36:01.743Z,96219.87
2018-03-29T02:38:28.013Z,96219.73
2018-03-29T02:40:54.304Z,96198.42
2018-03-29T02:43:20.559Z,96198.72
2018-03-29T02:45:46.798Z,96175.52
2018-03-29T02:48:13.068Z,96206.01
2018-03-29T02:50:39.321Z,96224.24
2018-03-29T02:53:06.485Z,96221.73
2018-03-29T02:55:32.726Z,96230.56
2018-03-29T02:57:59.060Z,96248.32
2018-03-29T03:00:25.358Z,96223.77
2018-03-29T03:02:51.608Z,96246.66
2018-03-29T03:05:17.932Z,96241.34
2018-03-29T03:07:44.194Z,96231.23
2018-03-29T03:10:10.440Z,96249.61
2018-03-29T03:12:36.743Z,96276.50
2018-03-29T03:15:03.020Z,96282.77
2018-03-29T03:17:29.288Z,96299.09
2018-03-29T03:19:55.525Z,96290.94
2018-03-29T03:22:21.773Z,96295.56
2018-03-29T03:24:48.038Z,96303.21
2018-03-29T03:27:14.260Z,96297.16
2018-03-29T03:29:40.525Z,96305.95
2018-03-29T03:32:06.862Z,96310.75
2018-03-29T03:34:33.105Z,96304.23
2018-03-29T03:36:59.854Z,96323.80
2018-03-29T03:39:26.136Z,96328.09
2018-03-29T03:41:52.404Z,96333.97
2018-03-29T03:44:18.665Z,96327.05
2018-03-29T03:46:44.946Z,96327.70
2018-03-29T03:49:11.218Z,96341.02
2018-03-29T03:51:37.458Z,96341.16
2018-03-29T03:54:03.755Z,96337.48
2018-03-29T03:56:30.001Z,96345.68
2018-03-29T03:58:56.288Z,96353.19
2018-03-29T04:01:22.565Z,96364.19
2018-03-29T04:03:48.810Z,96369.25
2018-03-29T04:06:15.081Z,96359.30
2018-03-29T04:08:41.328Z,96366.55
2018-03-29T04:11:07.597Z,96378.05
2018-03-29T04:13:33.865Z,96388.22
2018-03-29T04:16:00.168Z,96384.55
2018-03-29T04:18:26.453Z,96396.92
2018-03-29T04:20:52.701Z,96391.05
2018-03-29T04:23:18.945Z,96395.69
2018-03-29T04:25:45.245Z,96398.68
2018-03-29T04:28:11.521Z,96412.14
2018-03-29T04:30:37.786Z,96400.73
2018-03-29T04:33:04.024Z,96416.05
2018-03-29T04:35:30.265Z,96421.52
2018-03-29T04:37:56.527Z,96426.67
2018-03-29T04:40:22.778Z,96432.41
2018-03-29T04:42:49.056Z,96452.28
2018-03-29T04:45:15.289Z,96452.52
2018-03-29T04:47:41.565Z,96455.78
2018-03-29T04:50:07.841Z,96452.48
2018-03-29T04:52:34.074Z,96465.20
2018-03-29T04:55:00.313Z,96464.43
2018-03-29T04:57:26.574Z,96473.68
2018-03-29T04:59:52.810Z,96478.70
2018-03-29T05:02:19.081Z,96470.72
2018-03-29T05:04:45.369Z,96484.92
2018-03-29T05:07:11.617Z,96487.14
2018-03-29T05:09:37.983Z,96480.72
2018-03-29T05:12:04.218Z,96482.18
2018-03-29T05:14:30.470Z,96498.42
2018-03-29T05:16:56.737Z,96500.73
2018-03-29T05:19:22.980Z,96502.28
2018-03-29T05:21:49.254Z,96509.98
2018-03-29T05:24:15.695Z,96518.83
2018-03-29T05:26:41.973Z,96510.61
2018-03-29T05:29:08.252Z,96519.98
2018-03-29T05:31:34.533Z,96508.81
2018-03-29T05:34:00.827Z,96525.14
2018-03-29T05:36:27.073Z,96520.28
2018-03-29T05:38:53.331Z,96544.42
2018-03-29T05:41:19.597Z,96542.90
2018-03-29T05:43:45.839Z,96549.34
2018-03-29T05:46:12.118Z,96540.52
2018-03-29T05:48:38.360Z,96549.78
2018-03-29T05:51:04.622Z,96559.08
2018-03-29T05:53:30.909Z,96552.29
2018-03-29T05:55:57.154Z,96574.55
2018-03-29T05:58:23.433Z,96574.53
2018-03-29T06:00:49.698Z,96560.56
2018-03-29T06:03:15.950Z,96581.30
2018-03-29T06:05:42.233Z,96586.30
2018-03-29T06:08:08.478Z,96578.61
2018-03-29T06:10:34.754Z,96576.38
2018-03-29T06:13:01.010Z,96577.26
2018-03-29T06:15:32.151Z,96601.05
2018-03-29T06:18:00.317Z,96608.45
2018-03-29T06:20:26.588Z,96624.75
2018-03-29T06:22:52.858Z,96623.41
2018-03-29T06:25:19.101Z,96626.64
2018-03-29T06:27:45.377Z,96630.27
2018-03-29T06:30:11.657Z,96634.06
2018-03-29T06:32:37.900Z,96637.29
2018-03-29T06:35:04.177Z,96647.84
2018-03-29T06:37:30.424Z,96644.70
2018-03-29T06:39:56.702Z,96641.35
2018-03-29T06:42:22.961Z,96664.89
2018-03-29T06:44:49.201Z,96649.09
2018-03-29T06:47:15.457Z,96664.31
2018-03-29T06:49:41.701Z,96668.50
2018-03-29T06:52:07.966Z,96683.21
2018-03-29T06:54:34.204Z,96672.70
2018-03-29T06:57:00.453Z,96679.09
2018-03-29T06:59:26.744Z,96682.02
2018-03-29T07:01:52.997Z,96686.14
2018-03-29T07:04:19.289Z,96698.78
2018-03-29T07:06:45.560Z,96687.89
2018-03-29T07:09:11.861Z,96688.41
2018-03-29T07:11:38.162Z,96698.00
2018-03-29T07:14:04.421Z,96691.31
2018-03-29T07:16:30.705Z,96699.62
2018-03-29T07:18:56.953Z,96694.14
2018-03-29T07:21:23.209Z,96693.13
2018-03-29T07:23:49.481Z,96704.05
2018-03-29T07:26:15.755Z,96712.77
2018-03-29T07:28:42.043Z,96708.37
2018-03-29T07:31:08.294Z,96705.38
2018-03-29T07:33:34.530Z,96714.44
2018-03-29T07:36:00.792Z,96708.23
2018-03-29T07:38:27.085Z,96718.77
2018-03-29T07:40:53.362Z,96718.23
2018-03-29T07:43:19.616Z,96708.13
2018-03-29T07:45:45.863Z,96722.52
2018-03-29T07:48:12.141Z,96724.23
2018-03-29T07:50:38.407Z,96726.98
2018-03-29T07:53:04.693Z,96733.35
2018-03-29T07:55:30.994Z,96736.14
2018-03-29T07:57:57.281Z,96740.59
2018-03-29T08:00:23.543Z,96727.14
2018-03-29T08:02:49.789Z,96746.75
2018-03-29T08:05:16.067Z,96738.77
2018-03-29T08:07:42.309Z,96746.05
2018-03-29T08:10:08.557Z,96737.13
2018-03-29T08:12:34.813Z,96743.29
2018-03-29T08:15:01.077Z,96742.17
2018-03-29T08:17:27.382Z,96739.50
2018-03-29T08:19:53.625Z,96734.96
2018-03-29T08:22:19.905Z,96747.57
2018-03-29T08:24:46.162Z,96736.15
2018-03-29T08:27:12.422Z,96730.67
2018-03-29T08:29:38.697Z,96736.45
2018-03-29T08:32:04.977Z,96736.34
2018-03-29T08:34:31.242Z,96739.48
2018-03-29T08:36:57.537Z,96744.53
2018-03-29T08:39:23.791Z,96736.66
2018-03-29T08:41:50.053Z,96732.53
2018-03-29T08:44:16.349Z,96748.53
2018-03-29T08:46:42.641Z,96739.77
2018-03-29T08:49:08.936Z,96734.95
2018-03-29T08:51:35.233Z,96726.97
2018-03-29T08:54:01.493Z,96736.63
2018-03-29T08:56:27.776Z,96739.61
2018-03-29T08:58:54.080Z,96740.36
2018-03-29T09:01:20.339Z,96740.56
2018-03-29T09:03:46.697Z,96736.06
2018-03-29T09:06:12.972Z,96757.27
2018-03-29T09:08:39.240Z,96745.30
2018-03-29T09:11:05.530Z,96747.76
2018-03-29T09:13:31.805Z,96762.00
2018-03-29T09:15:58.102Z,96761.55
2018-03-29T09:18:24.362Z,96769.73
2018-03-29T09:20:50.610Z,96784.56
2018-03-29T09:23:16.890Z,96772.61
2018-03-29T09:25:43.165Z,96767.95
2018-03-29T09:28:09.428Z,96777.86
2018-03-29T09:30:35.692Z,96777.38
2018-03-29T09:33:01.974Z,96774.31
2018-03-29T09:35:28.248Z,96774.69
2018-03-29T09:37:54.528Z,96800.69
2018-03-29T09:40:20.804Z,96799.17
2018-03-29T09:42:47.053Z,96796.57
2018-03-29T09:45:13.291Z,96795.02
2018-03-29T09:47:39.569Z,96782.60
2018-03-29T09:50:05.827Z,96793.77
2018-03-29T09:52:32.137Z,96798.80
2018-03-29T09:54:58.380Z,96790.90
2018-03-29T09:57:24.637Z,96801.22
2018-03-29T09:59:50.920Z,96811.91
2018-03-29T10:02:18.154Z,96801.61
2018-03-29T10:04:44.493Z,96799.80
2018-03-29T10:07:16.780Z,96812.11
2018-03-29T10:09:43.066Z,96812.59
2018-03-29T10:12:09.384Z,96806.06
2018-03-29T10:14:35.601Z,96808.59
2018-03-29T10:17:01.885Z,96804.09
2018-03-29T10:19:28.137Z,96819.66
2018-03-29T10:21:54.424Z,96812.24
2018-03-29T10:24:20.685Z,96815.14
2018-03-29T10:26:46.936Z,96811.41
2018-03-29T10:29:13.213Z,96819.84
2018-03-29T10:31:39.461Z,96819.22
2018-03-29T10:34:05.780Z,96803.67
2018-03-29T10:36:32.020Z,96810.13
2018-03-29T10:38:58.270Z,96821.80
2018-03-29T10:41:24.524Z,96815.52
2018-03-29T10:43:50.769Z,96819.30
2018-03-29T10:46:17.071Z,96824.61
2018-03-29T10:48:43.325Z,96826.25
2018-03-29T10:51:09.581Z,96826.60
2018-03-29T10:53:35.877Z,96821.31
2018-03-29T10:56:02.137Z,96818.64
2018-03-29T10:58:28.429Z,96798.81
2018-03-29T11:00:54.680Z,96815.39
2018-03-29T11:03:20.938Z,96816.20
2018-03-29T11:05:47.202Z,96816.90
2018-03-29T11:08:13.472Z,96803.75
2018-03-29T11:10:39.755Z,96815.75
2018-03-29T11:13:06.035Z,96817.80
2018-03-29T11:15:32.322Z,96824.42
2018-03-29T11:17:58.614Z,96838.80
2018-03-29T11:20:24.876Z,96818.44
2018-03-29T11:22:51.158Z,96820.41
2018-03-29T11:25:17.436Z,96827.86
2018-03-29T11:27:43.701Z,96816.11
2018-03-29T11:30:09.975Z,96824.80
2018-03-29T11:32:36.236Z,96830.84
2018-03-29T11:35:02.568Z,96825.63
2018-03-29T11:37:28.805Z,96845.56
2018-03-29T11:39:55.067Z,96841.47
2018-03-29T11:42:21.341Z,96847.48
2018-03-29T11:44:47.597Z,96841.44
2018-03-29T11:47:13.901Z,96843.86
2018-03-29T11:49:40.148Z,96839.34
2018-03-29T11:52:06.404Z,96855.03
2018-03-29T11:54:32.700Z,96843.28
2018-03-29T11:56:58.952Z,96843.92
2018-03-29T11:59:25.216Z,96832.61
2018-03-29T12:01:51.460Z,96835.78
2018-03-29T12:04:17.708Z,96839.89
2018-03-29T12:06:44.003Z,96840.27
2018-03-29T12:09:10.237Z,96843.38
2018-03-29T12:11:36.508Z,96846.08
2018-03-29T12:14:02.793Z,96845.80
2018-03-29T12:16:29.033Z,96849.38
2018-03-29T12:18:55.325Z,96852.26
2018-03-29T12:21:21.789Z,96855.92
2018-03-29T12:23:48.172Z,96851.16
2018-03-29T12:26:14.414Z,96852.91
2018-03-29T12:28:40.662Z,96843.15
2018-03-29T12:31:06.935Z,96848.20
2018-03-29T12:33:33.201Z,96847.80
2018-03-29T12:35:59.474Z,96842.90
2018-03-29T12:38:25.713Z,96850.23
2018-03-29T12:40:51.961Z,96855.20
2018-03-29T12:43:18.234Z,96850.63
2018-03-29T12:45:44.493Z,96858.36
2018-03-29T12:48:10.735Z,96850.70
2018-03-29T12:50:37.028Z,96854.63
2018-03-29T12:53:03.271Z,96858.77
2018-03-29T12:55:42.730Z,96861.59
2018-03-29T12:58:10.664Z,96859.03
2018-03-29T13:00:36.962Z,96851.77
2018-03-29T13:03:03.261Z,96858.74
2018-03-29T13:05:29.533Z,96852.48
2018-03-29T13:07:55.824Z,96849.21
2018-03-29T13:10:22.097Z,96846.70
2018-03-29T13:12:48.348Z,96858.11
2018-03-29T13:15:14.618Z,96844.25
2018-03-29T13:17:40.878Z,96853.44
2018-03-29T13:20:07.141Z,96847.72
2018-03-29T13:22:33.560Z,96850.20
2018-03-29T13:24:59.845Z,96845.05
2018-03-29T13:27:26.155Z,96853.69
2018-03-29T13:29:52.392Z,96853.66
2018-03-29T13:32:18.637Z,96849.30
2018-03-29T13:34:44.917Z,96857.50
2018-03-29T13:37:11.170Z,96856.35
2018-03-29T13:39:37.441Z,96852.33
2018-03-29T13:42:03.690Z,96853.16
2018-03-29T13:44:29.993Z,96852.95
2018-03-29T13:46:56.259Z,96850.11
2018-03-29T13:49:22.539Z,96842.11
2018-03-29T13:51:48.836Z,96841.97
2018-03-29T13:54:15.081Z,96851.80
2018-03-29T13:56:41.354Z,96858.09
2018-03-29T13:59:07.620Z,96849.45
2018-03-29T14:01:33.873Z,96854.53
2018-03-29T14:04:00.164Z,96852.87
2018-03-29T14:06:26.437Z,96846.28
2018-03-29T14:08:52.673Z,96844.00
2018-03-29T14:11:18.959Z,96848.48
2018-03-29T14:13:45.204Z,96841.04
2018-03-29T14:16:11.492Z,96842.52
2018-03-29T14:18:37.740Z,96845.68
2018-03-29T14:21:03.997Z,96838.69
2018-03-29T14:23:30.314Z,96846.77
2018-03-29T14:25:56.569Z,96842.62
2018-03-29T14:28:22.853Z,96837.20
2018-03-29T14:30:49.101Z,96835.77
2018-03-29T14:33:15.352Z,96832.59
2018-03-29T14:35:42.537Z,96826.98
2018-03-29T14:38:08.761Z,96825.17
2018-03-29T14:40:35.068Z,96813.91
2018-03-29T14:43:01.342Z,96819.14
2018-03-29T14:45:27.613Z,96816.91
2018-03-29T14:47:53.909Z,96809.44
2018-03-29T14:50:20.167Z,96816.58
2018-03-29T14:52:46.452Z,96805.75
2018-03-29T14:55:12.740Z,96797.23
2018-03-29T14:57:39.017Z,96797.28
2018-03-29T15:00:05.331Z,96790.00
2018-03-29T15:02:31.597Z,96783.73
2018-03-29T15:04:57.904Z,96777.09
2018-03-29T15:07:24.192Z,96785.56
2018-03-29T15:09:50.452Z,96795.84
2018-03-29T15:12:16.734Z,96800.67
2018-03-29T15:14:43.000Z,96796.10
2018-03-29T15:17:09.281Z,96803.81
2018-03-29T15:19:35.538Z,96800.34
2018-03-29T15:22:01.798Z,96803.33
2018-03-29T15:24:28.082Z,96804.52
2018-03-29T15:26:54.340Z,96801.27
2018-03-29T15:29:20.620Z,96807.91
2018-03-29T15:31:46.870Z,96804.77
2018-03-29T15:34:13.144Z,96809.28
2018-03-29T15:36:39.565Z,96804.12
2018-03-29T15:39:05.924Z,96815.36
2018-03-29T15:41:32.179Z,96815.31
2018-03-29T15:43:58.504Z,96815.28
2018-03-29T15:46:24.785Z,96817.64
2018-03-29T15:48:51.076Z,96816.09
2018-03-29T15:51:17.368Z,96815.09
2018-03-29T15:53:43.645Z,96819.53
2018-03-29T15:56:09.884Z,96818.12
2018-03-29T15:58:36.120Z,96826.34
2018-03-29T16:01:02.494Z,96822.02
2018-03-29T16:03:28.778Z,96822.03
2018-03-29T16:05:55.068Z,96821.30
2018-03-29T16:08:21.323Z,96825.84
2018-03-29T16:10:47.584Z,96819.51
2018-03-29T16:13:13.872Z,96835.02
2018-03-29T16:15:40.132Z,96837.00
2018-03-29T16:18:06.489Z,96831.19
2018-03-29T16:20:32.752Z,96835.44
2018-03-29T16:22:59.013Z,96835.56
2018-03-29T16:25:25.318Z,96829.38
2018-03-29T16:27:51.639Z,96835.80
2018-03-29T16:30:17.933Z,96836.16
2018-03-29T16:32:44.181Z,96835.19
2018-03-29T16:35:10.464Z,96842.71
2018-03-29T16:37:36.712Z,96833.88
2018-03-29T16:40:02.989Z,96842.70
2018-03-29T16:42:29.310Z,96846.68
2018-03-29T16:44:55.560Z,96847.12
2018-03-29T16:47:21.884Z,96854.42
2018-03-29T16:49:48.198Z,96850.06
2018-03-29T16:52:14.445Z,96859.70
2018-03-29T16:54:40.704Z,96859.23
2018-03-29T16:57:06.985Z,96859.80
2018-03-29T16:59:34.422Z,96865.07
2018-03-29T17:02:00.708Z,96863.88
2018-03-29T17:04:27.056Z,96864.38
2018-03-29T17:06:53.337Z,96867.83
2018-03-29T17:09:19.607Z,96874.24
2018-03-29T17:11:45.884Z,96869.89
2018-03-29T17:14:12.280Z,96870.80
2018-03-29T17:16:38.540Z,96877.47
2018-03-29T17:19:04.789Z,96881.17
2018-03-29T17:21:31.133Z,96880.01
2018-03-29T17:23:57.382Z,96880.70
2018-03-29T17:26:23.620Z,96888.64
2018-03-29T17:28:49.925Z,96890.30
2018-03-29T17:31:16.188Z,96890.09
2018-03-29T17:33:42.677Z,96890.45
2018-03-29T17:36:08.949Z,96890.09
2018-03-29T17:38:35.233Z,96890.52
2018-03-29T17:41:01.500Z,96899.14
2018-03-29T17:43:27.788Z,96900.66
2018-03-29T17:45:54.097Z,96899.75
2018-03-29T17:48:20.523Z,96909.69
2018-03-29T17:50:46.780Z,96916.60
2018-03-29T17:53:13.043Z,96923.64
2018-03-29T17:55:39.317Z,96921.75
2018-03-29T17:58:05.593Z,96916.86
2018-03-29T18:00:31.849Z,96922.13
2018-03-29T18:02:58.193Z,96929.47
2018-03-29T18:05:24.529Z,96920.44
2018-03-29T18:07:50.784Z,96919.06
2018-03-29T18:10:17.191Z,96926.42
2018-03-29T18:12:43.453Z,96924.81
2018-03-29T18:15:09.702Z,96925.43
2018-03-29T18:17:36.004Z,96927.02
2018-03-29T18:20:02.313Z,96934.81
2018-03-29T18:22:28.589Z,96933.77
2018-03-29T18:24:54.890Z,96942.00
2018-03-29T18:27:21.128Z,96953.27
2018-03-29T18:29:47.401Z,96949.52
2018-03-29T18:32:13.705Z,96965.19
2018-03-29T18:34:41.021Z,96981.15
2018-03-29T18:37:07.265Z,96990.95
2018-03-29T18:39:33.512Z,97008.66
2018-03-29T18:41:59.805Z,97001.30
2018-03-29T18:44:26.055Z,97022.58
2018-03-29T18:46:52.342Z,97029.29
2018-03-29T18:49:18.579Z,97031.11
2018-03-29T18:51:44.842Z,97037.31
2018-03-29T18:54:11.139Z,97039.38
2018-03-29T18:56:37.444Z,97035.33
2018-03-29T18:59:03.840Z,97045.66
2018-03-29T19:01:30.149Z,97045.00
2018-03-29T19:03:56.401Z,97049.36
2018-03-29T19:06:22.676Z,97057.94
2018-03-29T19:08:48.920Z,97054.64
2018-03-29T19:11:15.209Z,97054.54
2018-03-29T19:13:41.460Z,97056.66
2018-03-29T19:16:08.014Z,97048.11
2018-03-29T19:18:34.309Z,97044.59
2018-03-29T19:21:00.553Z,97051.02
2018-03-29T19:23:26.845Z,97055.25
2018-03-29T19:25:53.805Z,97053.45
2018-03-29T19:28:20.087Z,97063.99
2018-03-29T19:30:46.374Z,97068.77
2018-03-29T19:33:12.624Z,97072.91
2018-03-29T19:35:38.950Z,97070.38
2018-03-29T19:38:05.200Z,97072.75
2018-03-29T19:40:31.477Z,97076.97
2018-03-29T19:42:57.774Z,97078.54
2018-03-29T19:45:24.028Z,97083.16
2018-03-29T19:47:50.294Z,97087.95
2018-03-29T19:50:16.576Z,97076.48
2018-03-29T19:52:42.886Z,97071.12
2018-03-29T19:55:09.149Z,97075.06
2018-03-29T19:57:35.410Z,97072.75
2018-03-29T20:00:01.693Z,97076.31
2018-03-29T20:02:27.965Z,97081.32
2018-03-29T20:04:54.290Z,97086.52
2018-03-29T20:07:20.661Z,97082.16
2018-03-29T20:09:46.919Z,97083.77
2018-03-29T20:12:13.217Z,97085.81
2018-03-29T20:14:39.464Z,97086.52
2018-03-29T20:17:05.712Z,97074.08
2018-03-29T20:19:32.018Z,97075.19
2018-03-29T20:21:58.309Z,97076.87
2018-03-29T20:24:24.613Z,97082.90
2018-03-29T20:26:50.864Z,97082.67
2018-03-29T20:29:17.437Z,97094.91
2018-03-29T20:31:43.743Z,97087.52
2018-03-29T20:34:09.988Z,97085.63
2018-03-29T20:36:36.281Z,97080.84
2018-03-29T20:39:02.645Z,97084.23
2018-03-29T20:41:28.893Z,97082.41
2018-03-29T20:43:55.390Z,97083.27
2018-03-29T20:46:21.625Z,97076.67
2018-03-29T20:48:47.925Z,97086.52
2018-03-29T20:51:14.189Z,97089.37
2018-03-29T20:53:40.432Z,97089.36
2018-03-29T20:56:06.664Z,97085.50
2018-03-29T20:58:32.981Z,97081.61
2018-03-29T21:00:59.228Z,97085.85
2018-03-29T21:03:25.504Z,97082.52
2018-03-29T21:05:51.752Z,97084.38
2018-03-29T21:08:17.996Z,97087.98
2018-03-29T21:10:44.279Z,97087.59
2018-03-29T21:13:10.510Z,97087.50
2018-03-29T21:15:36.809Z,97087.33
2018-03-29T21:18:03.102Z,97084.14
2018-03-29T21:20:29.394Z,97082.13
2018-03-29T21:22:55.645Z,97080.63
2018-03-29T21:25:21.976Z,97078.89
2018-03-29T21:27:48.285Z,97078.19
2018-03-29T21:30:14.536Z,97082.92
2018-03-29T21:32:40.849Z,97075.59
2018-03-29T21:35:07.095Z,97076.98
2018-03-29T21:37:33.333Z,97075.59
2018-03-29T21:39:59.793Z,97080.02
2018-03-29T21:42:25.948Z,97086.97
2018-03-29T21:44:52.181Z,97082.56
2018-03-29T21:47:18.445Z,97084.67
2018-03-29T21:49:44.713Z,97080.48
2018-03-29T21:52:11.038Z,97085.67
2018-03-29T21:54:37.294Z,97087.81
2018-03-29T21:57:03.565Z,97090.17
2018-03-29T21:59:29.828Z,97083.38
2018-03-29T22:01:56.073Z,97094.30
2018-03-29T22:04:22.365Z,97085.89
2018-03-29T22:06:48.643Z,97088.20
2018-03-29T22:09:14.902Z,97083.53
2018-03-29T22:11:41.180Z,97085.96
2018-03-29T22:14:07.441Z,97082.67
2018-03-29T22:16:33.753Z,97087.66
2018-03-29T22:19:00.004Z,97085.80
2018-03-29T22:21:26.249Z,97081.97
2018-03-29T22:23:52.510Z,97088.61
2018-03-29T22:26:18.784Z,97079.16
2018-03-29T22:28:45.104Z,97082.34
2018-03-29T22:31:11.341Z,97079.16
2018-03-29T22:33:37.650Z,97084.88
2018-03-29T22:36:03.957Z,97080.75
2018-03-29T22:38:30.199Z,97082.67
2018-03-29T22:40:56.482Z,97087.30
2018-03-29T22:43:22.724Z,97077.08
2018-03-29T22:45:48.969Z,97080.75
2018-03-29T22:48:15.273Z,97079.16
2018-03-29T22:50:41.533Z,97080.09
2018-03-29T22:53:07.841Z,97077.78
2018-03-29T22:55:34.089Z,97086.25
2018-03-29T22:58:00.344Z,97085.58
2018-03-29T23:00:35.421Z,97091.61
2018-03-29T23:03:01.698Z,97091.29
2018-03-29T23:05:27.997Z,97101.80
2018-03-29T23:07:54.305Z,97102.62
2018-03-29T23:10:20.593Z,97105.68
2018-03-29T23:12:46.913Z,97111.20
2018-03-29T23:15:13.197Z,97108.52
2018-03-29T23:17:39.488Z,97110.88
2018-03-29T23:20:05.748Z,97112.33
2018-03-29T23:22:32.083Z,97119.58
2018-03-29T23:24:58.364Z,97117.99
2018-03-29T23:27:24.644Z,97120.39
2018-03-29T23:29:50.912Z,97120.39
2018-03-29T23:32:17.201Z,97130.89
2018-03-29T23:34:43.460Z,97126.55
2018-03-29T23:37:09.718Z,97122.20
2018-03-29T23:39:35.980Z,97124.31
2018-03-29T23:42:02.249Z,97127.27
2018-03-29T23:44:28.528Z,97130.08
2018-03-29T23:46:54.841Z,97129.39
2018-03-29T23:49:21.109Z,97127.86
2018-03-29T23:51:47.369Z,97127.86
2018-03-29T23:54:13.695Z,97123.99
2018-03-29T23:56:39.933Z,97124.27
2018-03-29T23:59:06.175Z,97126.80
